Prince George, Canada
Current Conditions -  °F | °C
As of 5:30 AM on Thursday 23 Oct 2014 (Local Time) from CYXS Reporting Station
NA  
Wind Chill: 33°   Ceiling: NA
Heat Index: 41°   Visibility: 9mi
Dew Point: 39°   Wind: 14mph
Humidity: 93%   Direction: 170°S
Pressure: 29.41"   Gusts: NA
Location:  53.91°N, 122.75°W
Report Text: CYXS 231230Z AUTO 17012KT 9SM 05/04 A2941 RMK CLD MISG SLP977
Loading
Personal Weather Stations






























Interactive Weather Map
Tropical Storm Tracking
New forecast layout! Learn more

10-Day Weather Forecast

Advertisements
Track Severe Weather on mobile